Time;durP1;ratioP1;P1;durP2;ratioP2;P2;SDS_P1;SDS_P2;PMS_P1;PMS_P2;Temp;Humidity;BMP_temperature;BMP_pressure;BME280_temperature;BME280_humidity;BME280_pressure;Samples;Min_cycle;Max_cycle;Signal;HPM_P1;HPM_P2
2022/12/10 00:00:36;;;;;;;135.30;48.50;;;;;;;-0.83;100.00;98435.23;102224;1356;22314;-32
2022/12/10 00:03:02;;;;;;;91.70;36.50;;;;;;;-0.82;100.00;98439.86;102073;1373;22342;-31
2022/12/10 00:05:27;;;;;;;114.10;41.60;;;;;;;-0.87;100.00;98441.75;102053;1356;22394;-32
2022/12/10 00:07:52;;;;;;;100.50;40.60;;;;;;;-0.84;100.00;98441.30;101971;1359;22635;-32
2022/12/10 00:10:18;;;;;;;69.40;32.20;;;;;;;-0.84;100.00;98444.41;101852;1356;22273;-36
2022/12/10 00:12:44;;;;;;;115.80;46.60;;;;;;;-0.84;100.00;98440.41;101904;1348;24352;-33
2022/12/10 00:15:10;;;;;;;88.60;34.70;;;;;;;-0.84;100.00;98429.46;101428;1355;22650;-30
2022/12/10 00:17:36;;;;;;;84.90;35.70;;;;;;;-0.84;100.00;98428.04;102062;1356;22462;-34
2022/12/10 00:20:01;;;;;;;76.30;31.90;;;;;;;-0.84;100.00;98426.85;102123;1368;22655;-30
2022/12/10 00:22:27;;;;;;;101.00;37.80;;;;;;;-0.82;100.00;98425.10;102155;1352;22346;-30
2022/12/10 00:24:52;;;;;;;116.70;43.50;;;;;;;-0.84;100.00;98420.23;102137;1356;22635;-34
2022/12/10 00:27:18;;;;;;;70.50;27.60;;;;;;;-0.87;100.00;98414.66;102139;1356;22324;-34
2022/12/10 00:29:43;;;;;;;84.30;34.30;;;;;;;-0.91;100.00;98411.75;102089;1353;22499;-35
2022/12/10 00:32:09;;;;;;;83.80;34.40;;;;;;;-0.92;100.00;98414.17;102116;1356;22475;-33
2022/12/10 00:34:34;;;;;;;115.60;46.10;;;;;;;-0.90;100.00;98422.66;102090;1355;22633;-34
2022/12/10 00:37:00;;;;;;;93.60;38.10;;;;;;;-0.89;100.00;98420.87;102053;1371;22410;-29
2022/12/10 00:39:26;;;;;;;101.50;38.20;;;;;;;-0.84;100.00;98420.04;102075;1356;22299;-29
2022/12/10 00:41:51;;;;;;;87.80;35.40;;;;;;;-0.85;100.00;98425.72;101725;1355;25710;-30
2022/12/10 00:44:17;;;;;;;88.60;36.20;;;;;;;-0.87;100.00;98434.36;102088;1353;22686;-35
2022/12/10 00:46:42;;;;;;;88.50;36.10;;;;;;;-0.91;100.00;98439.67;102100;1356;23783;-31
2022/12/10 00:49:09;;;;;;;93.40;37.50;;;;;;;-0.92;100.00;98445.72;101997;1356;22257;-35
2022/12/10 00:51:34;;;;;;;82.20;30.40;;;;;;;-0.93;100.00;98448.39;102094;1372;22382;-34
2022/12/10 00:54:00;;;;;;;93.30;37.00;;;;;;;-0.96;100.00;98447.00;101939;1365;22459;-30
2022/12/10 00:56:28;;;;;;;91.40;31.60;;;;;;;-1.01;100.00;98450.78;102144;1356;22448;-31
2022/12/10 00:58:54;;;;;;;124.00;46.20;;;;;;;-0.98;100.00;98447.83;102160;1356;22632;-35
2022/12/10 01:01:23;;;;;;;82.10;36.40;;;;;;;-0.98;100.00;98445.04;102125;1356;22468;-34
2022/12/10 01:03:52;;;;;;;106.50;37.10;;;;;;;-0.97;100.00;98444.98;102106;1352;22254;-35
2022/12/10 01:06:21;;;;;;;100.40;35.20;;;;;;;-1.01;100.00;98445.02;102109;1372;22623;-35
2022/12/10 01:08:47;;;;;;;102.70;39.40;;;;;;;-1.02;100.00;98451.23;102160;1357;22322;-30
2022/12/10 01:11:14;;;;;;;91.10;33.80;;;;;;;-1.00;100.00;98452.96;102147;1356;22641;-35
2022/12/10 01:13:40;;;;;;;80.90;26.10;;;;;;;-0.98;100.00;98452.75;102158;1343;22381;-30
2022/12/10 01:16:07;;;;;;;99.30;37.00;;;;;;;-1.02;100.00;98456.13;102002;1358;22239;-35
2022/12/10 01:18:32;;;;;;;89.10;34.00;;;;;;;-0.99;100.00;98452.68;102022;1357;22256;-31
2022/12/10 01:21:03;;;;;;;94.50;34.70;;;;;;;-1.04;100.00;98452.66;102060;1372;22655;-35
2022/12/10 01:23:31;;;;;;;73.60;22.10;;;;;;;-1.03;100.00;98448.52;102130;1372;22438;-31
2022/12/10 01:26:00;;;;;;;84.20;32.20;;;;;;;-1.06;100.00;98451.27;102145;1356;22458;-31
2022/12/10 01:28:25;;;;;;;63.80;25.10;;;;;;;-1.08;100.00;98444.77;102101;1357;22198;-30
2022/12/10 01:30:51;;;;;;;77.40;29.00;;;;;;;-1.07;100.00;98442.02;102143;1356;22261;-30
2022/12/10 01:33:16;;;;;;;47.40;19.40;;;;;;;-1.04;100.00;98446.35;102087;1355;22137;-35
2022/12/10 01:35:41;;;;;;;117.70;41.10;;;;;;;-1.04;100.00;98448.27;101768;1356;23300;-35
2022/12/10 01:38:07;;;;;;;94.00;32.20;;;;;;;-1.03;100.00;98452.80;101917;1369;22247;-31
2022/12/10 01:40:37;;;;;;;76.40;32.90;;;;;;;-1.02;100.00;98453.30;102085;1355;22628;-30
2022/12/10 01:43:03;;;;;;;57.20;22.60;;;;;;;-1.03;100.00;98456.91;102217;1356;22174;-31
2022/12/10 01:45:28;;;;;;;90.70;32.20;;;;;;;-1.07;100.00;98458.10;102093;1356;22135;-31
2022/12/10 01:47:54;;;;;;;87.00;31.20;;;;;;;-1.02;100.00;98456.16;102106;1374;22628;-31
2022/12/10 01:50:19;;;;;;;100.00;35.20;;;;;;;-1.06;100.00;98456.75;102157;1373;22328;-31
2022/12/10 01:52:45;;;;;;;65.00;22.30;;;;;;;-1.03;100.00;98466.30;102109;1372;22708;-31
2022/12/10 01:55:17;;;;;;;101.30;38.10;;;;;;;-1.09;100.00;98465.42;102048;1355;22238;-35
2022/12/10 01:57:44;;;;;;;74.40;30.80;;;;;;;-1.04;100.00;98469.55;102084;1356;22126;-35
2022/12/10 02:00:10;;;;;;;63.80;26.10;;;;;;;-1.05;100.00;98467.13;102084;1356;22771;-31
2022/12/10 02:02:42;;;;;;;70.50;25.10;;;;;;;-1.04;100.00;98465.80;102110;1356;22324;-35
2022/12/10 02:05:09;;;;;;;87.20;34.40;;;;;;;-1.05;100.00;98462.13;102069;1373;22340;-30
2022/12/10 02:07:42;;;;;;;95.70;36.90;;;;;;;-0.98;100.00;98455.58;102145;1355;22274;-35
2022/12/10 02:10:13;;;;;;;91.60;35.70;;;;;;;-1.01;100.00;98451.66;102126;1361;22237;-31
2022/12/10 02:12:47;;;;;;;70.40;29.70;;;;;;;-1.04;100.00;98445.14;102093;1356;22283;-30
2022/12/10 02:15:15;;;;;;;59.50;26.00;;;;;;;-0.99;100.00;98446.75;102179;1356;22193;-35
2022/12/10 02:17:47;;;;;;;98.40;35.40;;;;;;;-0.95;100.00;98447.21;102013;1371;22437;-31
2022/12/10 02:20:17;;;;;;;78.80;27.70;;;;;;;-0.96;100.00;98445.06;102200;1356;22473;-31
2022/12/10 02:22:46;;;;;;;76.90;29.10;;;;;;;-0.96;100.00;98445.92;102167;1357;22421;-30
2022/12/10 02:25:13;;;;;;;69.00;29.30;;;;;;;-0.97;100.00;98448.33;102123;1363;22231;-35
2022/12/10 02:27:45;;;;;;;67.60;23.70;;;;;;;-0.99;100.00;98447.21;102015;1367;22285;-30
2022/12/10 02:30:11;;;;;;;68.90;26.90;;;;;;;-0.95;100.00;98443.92;102081;1373;22401;-30
2022/12/10 02:32:40;;;;;;;79.00;25.10;;;;;;;-0.95;100.00;98447.95;102116;1356;22444;-35
2022/12/10 02:35:09;;;;;;;87.30;28.10;;;;;;;-0.91;100.00;98446.87;102017;1367;23053;-35
2022/12/10 02:37:38;;;;;;;61.20;21.70;;;;;;;-0.92;100.00;98449.03;102007;1356;22453;-33
2022/12/10 02:40:07;;;;;;;60.50;21.40;;;;;;;-0.96;100.00;98454.70;102175;1373;22324;-37
2022/12/10 02:42:34;;;;;;;71.00;28.10;;;;;;;-0.92;100.00;98460.66;101968;1374;22317;-30
2022/12/10 02:44:59;;;;;;;83.00;30.00;;;;;;;-0.91;100.00;98463.18;102190;1356;22249;-34
2022/12/10 02:47:25;;;;;;;82.20;29.20;;;;;;;-0.94;100.00;98462.95;102090;1365;22620;-35
2022/12/10 02:49:52;;;;;;;61.00;24.60;;;;;;;-0.93;100.00;98468.66;101961;1360;22727;-30
2022/12/10 02:52:19;;;;;;;59.50;23.70;;;;;;;-0.91;100.00;98471.83;101967;1362;22272;-30
2022/12/10 02:54:46;;;;;;;88.10;29.40;;;;;;;-0.89;100.00;98468.80;102187;1372;22346;-34
2022/12/10 02:57:16;;;;;;;73.20;25.80;;;;;;;-0.88;100.00;98464.34;101581;1374;22162;-34
2022/12/10 02:59:47;;;;;;;84.70;31.30;;;;;;;-0.89;100.00;98467.78;102082;1374;22265;-30
2022/12/10 03:02:17;;;;;;;95.10;33.00;;;;;;;-0.92;100.00;98462.97;102095;1356;22486;-30
2022/12/10 03:04:46;;;;;;;81.10;28.10;;;;;;;-0.90;100.00;98470.98;102167;1357;22398;-30
2022/12/10 03:07:17;;;;;;;68.00;26.90;;;;;;;-0.86;100.00;98474.81;102113;1356;22629;-36
2022/12/10 03:09:47;;;;;;;62.90;22.40;;;;;;;-0.86;100.00;98465.21;102165;1371;22143;-30
2022/12/10 03:12:19;;;;;;;80.10;27.50;;;;;;;-0.83;100.00;98461.70;102111;1374;22695;-34
2022/12/10 03:14:44;;;;;;;67.40;23.70;;;;;;;-0.82;100.00;98456.34;102121;1372;22292;-30
2022/12/10 03:17:10;;;;;;;69.90;26.80;;;;;;;-0.85;100.00;98456.52;102062;1372;22302;-34
2022/12/10 03:19:37;;;;;;;67.00;24.50;;;;;;;-0.84;100.00;98452.88;102073;1357;22291;-30
2022/12/10 03:22:03;;;;;;;88.00;29.60;;;;;;;-0.85;100.00;98456.83;102149;1372;22359;-30
2022/12/10 03:24:28;;;;;;;79.50;28.30;;;;;;;-0.83;100.00;98460.67;102084;1352;22455;-30
2022/12/10 03:26:54;;;;;;;73.30;24.60;;;;;;;-0.83;100.00;98459.39;102076;1356;22310;-34
2022/12/10 03:29:23;;;;;;;85.60;29.70;;;;;;;-0.80;100.00;98456.36;101936;1372;22288;-30
2022/12/10 03:31:50;;;;;;;93.40;32.70;;;;;;;-0.84;100.00;98455.52;102053;1356;22145;-30
2022/12/10 03:34:15;;;;;;;62.90;20.80;;;;;;;-0.82;100.00;98461.07;102000;1371;22610;-30
2022/12/10 03:36:41;;;;;;;77.80;25.30;;;;;;;-0.77;100.00;98459.22;102140;1355;22134;-30
2022/12/10 03:39:07;;;;;;;82.80;29.30;;;;;;;-0.81;100.00;98456.98;102094;1359;22313;-34
2022/12/10 03:41:33;;;;;;;71.40;25.00;;;;;;;-0.81;100.00;98460.30;102072;1356;22328;-32
2022/12/10 03:43:59;;;;;;;54.20;19.70;;;;;;;-0.79;100.00;98465.39;101998;1372;22579;-30
2022/12/10 03:46:25;;;;;;;74.50;23.60;;;;;;;-0.79;100.00;98465.27;102158;1356;22378;-33
2022/12/10 03:48:51;;;;;;;66.30;24.40;;;;;;;-0.81;100.00;98467.29;102001;1359;22337;-34
2022/12/10 03:51:17;;;;;;;51.40;19.10;;;;;;;-0.79;100.00;98465.09;102090;1373;22300;-33
2022/12/10 03:53:42;;;;;;;;;;;;;;;-0.78;100.00;98468.45;102059;1356;22183;-34
2022/12/10 03:56:08;;;;;;;79.50;25.30;;;;;;;-0.82;100.00;98468.50;102095;1371;22604;-34
2022/12/10 03:58:35;;;;;;;48.10;16.30;;;;;;;-0.77;100.00;98470.80;102174;1356;22152;-30
2022/12/10 04:01:02;;;;;;;65.20;23.50;;;;;;;-0.79;100.00;98466.05;102106;1359;22278;-30
2022/12/10 04:03:28;;;;;;;65.50;22.80;;;;;;;-0.77;100.00;98468.00;102174;1373;22512;-30
2022/12/10 04:05:53;;;;;;;59.30;19.70;;;;;;;-0.78;100.00;98464.25;102155;1355;22167;-34
2022/12/10 04:08:19;;;;;;;55.80;20.00;;;;;;;-0.78;100.00;98458.98;101657;1373;22627;-34
2022/12/10 04:10:44;;;;;;;55.00;19.70;;;;;;;-0.77;100.00;98456.23;102081;1355;22531;-34
2022/12/10 04:18:08;;;;;;;82.20;27.30;;;;;;;-0.77;100.00;98459.05;101941;1359;22311;-30
2022/12/10 04:28:01;;;;;;;67.20;21.20;;;;;;;-0.79;100.00;98460.26;102167;1356;22784;-34
2022/12/10 04:30:26;;;;;;;63.60;24.50;;;;;;;-0.80;100.00;98459.55;102006;1356;22717;-34
2022/12/10 04:32:52;;;;;;;76.90;28.00;;;;;;;-0.83;100.00;98471.05;101784;1373;22265;-34
2022/12/10 04:35:18;;;;;;;51.00;18.40;;;;;;;-0.80;100.00;98476.88;101771;1355;22604;-30
2022/12/10 04:37:43;;;;;;;56.10;20.70;;;;;;;-0.81;100.00;98479.45;102098;1356;22553;-34
2022/12/10 04:40:09;;;;;;;69.60;22.70;;;;;;;-0.79;100.00;98482.45;102047;1355;22376;-34
2022/12/10 04:42:35;;;;;;;54.20;19.50;;;;;;;-0.79;100.00;98488.04;102112;1373;22439;-29
2022/12/10 04:45:00;;;;;;;73.50;20.60;;;;;;;-0.77;100.00;98494.20;102108;1350;22597;-33
2022/12/10 04:47:26;;;;;;;74.00;23.50;;;;;;;-0.75;100.00;98495.79;102159;1356;22512;-34
2022/12/10 04:49:51;;;;;;;79.30;21.60;;;;;;;-0.75;100.00;98493.13;102076;1352;22626;-30
2022/12/10 04:52:17;;;;;;;58.80;19.10;;;;;;;-0.79;100.00;98493.70;102059;1373;22294;-34
2022/12/10 04:54:43;;;;;;;72.80;23.60;;;;;;;-0.82;100.00;98496.05;102116;1356;22647;-34
2022/12/10 04:57:08;;;;;;;73.90;21.00;;;;;;;-0.83;100.00;98495.11;102071;1359;22128;-34
2022/12/10 04:59:35;;;;;;;87.60;25.80;;;;;;;-0.88;100.00;98495.66;102082;1371;22695;-32
2022/12/10 05:02:02;;;;;;;70.70;18.30;;;;;;;-0.95;100.00;98493.44;101558;1356;22661;-29
2022/12/10 05:04:27;;;;;;;33.50;11.60;;;;;;;-1.01;100.00;98502.45;101717;1374;22716;-30
2022/12/10 05:06:53;;;;;;;55.80;18.10;;;;;;;-1.04;100.00;98506.38;102063;1356;23905;-34
2022/12/10 05:09:18;;;;;;;73.30;22.40;;;;;;;-1.04;100.00;98513.45;102149;1356;22250;-34
2022/12/10 05:11:44;;;;;;;61.90;19.50;;;;;;;-1.06;100.00;98516.25;102085;1355;22652;-34
2022/12/10 05:14:11;;;;;;;69.40;21.10;;;;;;;-1.04;100.00;98519.77;102074;1372;22311;-34
2022/12/10 05:16:37;;;;;;;59.00;18.80;;;;;;;-1.07;100.00;98519.69;102177;1355;22632;-34
2022/12/10 05:19:02;;;;;;;86.50;23.30;;;;;;;-1.09;100.00;98524.80;102015;1356;22294;-30
2022/12/10 05:23:27;;;;;;;70.60;19.00;;;;;;;-1.07;100.00;98529.02;102033;1355;22617;-34
2022/12/10 05:24:15;;;;;;;64.50;17.80;;;;;;;-1.12;100.00;98528.07;102132;1357;22657;-34
2022/12/10 05:26:40;;;;;;;60.90;16.80;;;;;;;-1.13;100.00;98530.23;102098;1360;22617;-30
2022/12/10 05:29:06;;;;;;;66.80;19.20;;;;;;;-1.12;100.00;98535.42;102120;1373;22645;-30
2022/12/10 05:31:31;;;;;;;75.80;20.50;;;;;;;-1.20;100.00;98540.95;101978;1371;22618;-34
2022/12/10 05:33:57;;;;;;;80.80;20.40;;;;;;;-1.19;100.00;98547.48;102071;1358;22229;-34
2022/12/10 05:36:25;;;;;;;46.20;14.60;;;;;;;-1.22;100.00;98550.23;102096;1352;22652;-34
2022/12/10 05:38:51;;;;;;;59.40;17.90;;;;;;;-1.23;100.00;98556.51;101977;1359;22607;-30
2022/12/10 05:41:18;;;;;;;56.90;18.00;;;;;;;-1.22;100.00;98557.78;102089;1356;22301;-30
2022/12/10 05:43:44;;;;;;;76.70;16.90;;;;;;;-1.23;100.00;98561.38;102068;1356;22170;-30
2022/12/10 05:46:11;;;;;;;29.90;10.70;;;;;;;-1.20;100.00;98563.77;102086;1357;22605;-30
2022/12/10 05:48:37;;;;;;;68.40;21.60;;;;;;;-1.18;100.00;98565.84;101927;1367;22886;-29
2022/12/10 05:51:05;;;;;;;68.00;18.30;;;;;;;-1.20;100.00;98563.79;102226;1359;22688;-33
2022/12/10 05:53:30;;;;;;;86.70;23.50;;;;;;;-1.24;100.00;98569.21;102138;1372;22275;-31
2022/12/10 05:56:00;;;;;;;65.50;19.40;;;;;;;-1.21;100.00;98567.05;102093;1356;22273;-34
2022/12/10 05:58:27;;;;;;;72.60;18.80;;;;;;;-1.23;100.00;98563.90;101889;1355;22369;-30
2022/12/10 06:00:53;;;;;;;39.70;11.30;;;;;;;-1.31;100.00;98563.09;102070;1356;22697;-30
2022/12/10 06:03:19;;;;;;;46.40;15.60;;;;;;;-1.29;100.00;98560.89;102116;1358;22255;-30
2022/12/10 06:05:45;;;;;;;57.50;15.20;;;;;;;-1.27;100.00;98561.61;102097;1373;22275;-34
2022/12/10 06:08:11;;;;;;;84.90;24.90;;;;;;;-1.30;100.00;98559.45;101953;1356;22277;-30
2022/12/10 06:10:36;;;;;;;91.20;21.70;;;;;;;-1.34;100.00;98554.68;101839;1370;23010;-29
2022/12/10 06:13:03;;;;;;;94.90;22.40;;;;;;;-1.34;100.00;98557.06;101911;1356;22649;-34
2022/12/10 06:15:28;;;;;;;94.00;24.20;;;;;;;-1.36;100.00;98557.17;101919;1356;22657;-29
2022/12/10 06:17:55;;;;;;;55.80;14.60;;;;;;;-1.38;100.00;98556.67;101803;1355;22185;-34
2022/12/10 06:20:22;;;;;;;69.10;18.00;;;;;;;-1.40;100.00;98556.55;101743;1374;22627;-33
2022/12/10 06:22:47;;;;;;;71.70;19.40;;;;;;;-1.38;100.00;98562.33;102139;1356;22415;-36
2022/12/10 06:25:13;;;;;;;76.70;18.70;;;;;;;-1.36;100.00;98561.41;102075;1372;22614;-32
2022/12/10 06:27:39;;;;;;;45.20;13.90;;;;;;;-1.38;100.00;98563.52;101606;1371;22599;-31
2022/12/10 06:30:05;;;;;;;70.60;18.50;;;;;;;-1.32;100.00;98568.02;102129;1356;22327;-30
2022/12/10 06:32:30;;;;;;;73.20;23.40;;;;;;;-1.34;100.00;98564.90;102136;1356;22640;-33
2022/12/10 06:34:56;;;;;;;89.70;26.10;;;;;;;-1.40;100.00;98566.85;101983;1372;22304;-30
2022/12/10 06:37:21;;;;;;;52.10;17.10;;;;;;;-1.37;100.00;98569.79;101838;1365;24328;-33
2022/12/10 06:39:47;;;;;;;76.40;22.70;;;;;;;-1.40;100.00;98572.45;102004;1366;22617;-34
2022/12/10 06:42:12;;;;;;;72.90;20.20;;;;;;;-1.38;100.00;98575.61;102090;1356;22454;-31
2022/12/10 06:44:38;;;;;;;89.60;23.70;;;;;;;-1.38;100.00;98574.23;102060;1356;22290;-29
2022/12/10 06:47:03;;;;;;;48.80;16.60;;;;;;;-1.37;100.00;98574.52;102110;1356;22164;-29
2022/12/10 06:49:29;;;;;;;55.80;18.80;;;;;;;-1.41;100.00;98576.76;102060;1356;22631;-34
2022/12/10 06:51:57;;;;;;;67.00;21.60;;;;;;;-1.31;100.00;98584.31;102085;1355;22482;-31
2022/12/10 06:54:23;;;;;;;85.30;26.60;;;;;;;-1.36;100.00;98588.50;102105;1365;22331;-34
2022/12/10 06:56:48;;;;;;;98.10;21.10;;;;;;;-1.32;100.00;98588.14;101966;1363;22298;-31
2022/12/10 06:59:14;;;;;;;92.30;25.90;;;;;;;-1.35;100.00;98582.56;102097;1372;22229;-29
2022/12/10 07:01:39;;;;;;;69.70;22.80;;;;;;;-1.30;100.00;98586.35;101964;1356;22353;-29
2022/12/10 07:04:05;;;;;;;89.50;23.20;;;;;;;-1.36;100.00;98576.82;102101;1355;22315;-29
2022/12/10 07:06:31;;;;;;;56.20;17.40;;;;;;;-1.33;100.00;98576.77;102129;1372;22356;-34
2022/12/10 07:08:57;;;;;;;89.90;26.00;;;;;;;-1.32;100.00;98579.02;102148;1356;22295;-29
2022/12/10 07:11:23;;;;;;;65.40;21.80;;;;;;;-1.36;100.00;98577.41;102124;1353;22260;-30
2022/12/10 07:13:48;;;;;;;61.70;22.00;;;;;;;-1.36;100.00;98582.34;102135;1356;22405;-34
2022/12/10 07:16:16;;;;;;;77.80;25.00;;;;;;;-1.33;100.00;98587.29;102163;1356;22300;-29
2022/12/10 07:18:42;;;;;;;84.40;23.10;;;;;;;-1.32;100.00;98587.16;102127;1344;22838;-34
2022/12/10 07:21:13;;;;;;;45.10;16.20;;;;;;;-1.31;100.00;98590.66;102179;1364;22251;-30
2022/12/10 07:23:38;;;;;;;98.40;29.60;;;;;;;-1.30;100.00;98592.12;101964;1355;22615;-34
2022/12/10 07:26:04;;;;;;;62.30;18.70;;;;;;;-1.27;100.00;98595.33;101958;1346;22583;-34
2022/12/10 07:28:29;;;;;;;104.20;26.80;;;;;;;-1.24;100.00;98598.05;102252;1356;22641;-29
2022/12/10 07:31:01;;;;;;;67.30;20.20;;;;;;;-1.28;100.00;98591.42;102074;1356;22168;-34
2022/12/10 07:33:28;;;;;;;64.40;22.60;;;;;;;-1.27;100.00;98592.73;102127;1372;22619;-33
2022/12/10 07:35:54;;;;;;;69.40;23.30;;;;;;;-1.22;100.00;98593.86;101899;1365;22714;-33
2022/12/10 07:38:19;;;;;;;70.80;24.00;;;;;;;-1.26;100.00;98590.83;102154;1371;22633;-30
2022/12/10 07:40:45;;;;;;;59.90;21.10;;;;;;;-1.24;100.00;98594.88;101962;1371;22401;-30
2022/12/10 07:43:10;;;;;;;71.40;22.40;;;;;;;-1.26;100.00;98594.89;102158;1356;22317;-30
2022/12/10 07:45:36;;;;;;;74.10;24.20;;;;;;;-1.23;100.00;98591.45;101752;1369;531602;-29
2022/12/10 07:48:01;;;;;;;68.80;21.70;;;;;;;-1.24;100.00;98593.14;102155;1362;22402;-33
2022/12/10 07:50:27;;;;;;;62.30;17.20;;;;;;;-1.22;100.00;98605.04;102045;1356;22300;-29
2022/12/10 07:52:53;;;;;;;68.50;20.60;;;;;;;-1.20;100.00;98602.39;102183;1352;22211;-34
2022/12/10 07:55:18;;;;;;;70.80;23.70;;;;;;;-1.16;100.00;98599.09;102190;1372;22167;-29
2022/12/10 07:57:44;;;;;;;59.50;21.20;;;;;;;-1.12;100.00;98588.73;102092;1352;22310;-36
2022/12/10 08:00:10;;;;;;;38.40;12.00;;;;;;;-1.18;100.00;98589.08;102056;1356;22742;-36
2022/12/10 08:02:36;;;;;;;76.00;21.60;;;;;;;-1.25;100.00;98589.04;102083;1372;22313;-31
2022/12/10 08:05:02;;;;;;;96.60;25.50;;;;;;;-1.21;100.00;98590.98;102085;1372;22673;-36
2022/12/10 08:07:27;;;;;;;69.00;21.90;;;;;;;-1.23;100.00;98590.59;102114;1356;22552;-32
2022/12/10 08:09:53;;;;;;;72.80;23.90;;;;;;;-1.23;100.00;98595.89;102169;1371;22657;-36
2022/12/10 08:12:19;;;;;;;39.70;16.30;;;;;;;-1.16;100.00;98603.09;101927;1353;22720;-36
2022/12/10 08:14:45;;;;;;;57.20;18.60;;;;;;;-1.16;100.00;98609.10;101950;1368;22638;-33
2022/12/10 08:17:10;;;;;;;72.80;23.60;;;;;;;-1.13;100.00;98610.73;102120;1356;22288;-36
2022/12/10 08:19:36;;;;;;;68.70;20.40;;;;;;;-1.09;100.00;98612.86;102204;1356;22698;-36
2022/12/10 08:22:01;;;;;;;65.10;19.40;;;;;;;-1.14;100.00;98614.40;102085;1356;22612;-32
2022/12/10 08:24:27;;;;;;;55.20;19.20;;;;;;;-1.16;100.00;98614.15;101581;1372;22597;-32
2022/12/10 08:26:52;;;;;;;58.80;21.50;;;;;;;-1.15;100.00;98620.89;102175;1355;22617;-32
2022/12/10 08:29:18;;;;;;;50.90;13.30;;;;;;;-1.13;100.00;98624.30;102047;1372;22227;-32
2022/12/10 08:31:44;;;;;;;71.80;22.30;;;;;;;-1.16;100.00;98628.25;102123;1356;22671;-35
2022/12/10 08:34:12;;;;;;;66.30;22.00;;;;;;;-1.14;100.00;98634.86;102002;1372;22367;-32
2022/12/10 08:36:38;;;;;;;69.70;24.10;;;;;;;-1.14;100.00;98633.33;102166;1356;22287;-36
2022/12/10 08:39:03;;;;;;;116.20;31.60;;;;;;;-1.13;100.00;98630.95;101927;1346;22626;-32
2022/12/10 08:41:29;;;;;;;56.10;11.30;;;;;;;-1.11;100.00;98626.86;102107;1353;22403;-32
2022/12/10 08:43:55;;;;;;;66.00;23.60;;;;;;;-1.14;100.00;98625.04;101947;1356;22628;-32
2022/12/10 08:46:20;;;;;;;94.20;28.10;;;;;;;-1.07;100.00;98627.42;102135;1355;22603;-32
2022/12/10 08:48:46;;;;;;;67.70;20.20;;;;;;;-1.03;100.00;98631.44;102089;1355;22350;-36
2022/12/10 08:51:14;;;;;;;49.00;15.30;;;;;;;-1.03;100.00;98631.73;101991;1372;22231;-32
2022/12/10 08:53:39;;;;;;;78.70;25.70;;;;;;;-1.12;100.00;98628.23;102085;1355;22166;-32
2022/12/10 08:56:05;;;;;;;64.80;22.80;;;;;;;-1.12;100.00;98631.42;102014;1372;22626;-33
2022/12/10 08:58:31;;;;;;;75.60;25.70;;;;;;;-1.09;100.00;98627.09;102141;1372;22499;-36
2022/12/10 09:00:56;;;;;;;76.40;19.00;;;;;;;-1.05;100.00;98621.20;102117;1355;22296;-32
2022/12/10 09:03:22;;;;;;;78.20;26.80;;;;;;;-1.07;100.00;98613.16;102096;1356;22609;-36
2022/12/10 09:05:48;;;;;;;66.90;22.80;;;;;;;-1.02;100.00;98608.79;102134;1354;22191;-36
2022/12/10 09:08:14;;;;;;;75.70;24.60;;;;;;;-1.05;100.00;98607.69;102191;1372;22609;-31
2022/12/10 09:10:40;;;;;;;119.60;33.40;;;;;;;-1.10;100.00;98608.70;102065;1353;22634;-32
2022/12/10 09:13:05;;;;;;;98.20;32.20;;;;;;;-1.07;100.00;98613.45;102122;1353;22351;-33
2022/12/10 09:15:31;;;;;;;69.00;22.10;;;;;;;-1.02;100.00;98611.52;102184;1361;22345;-33
2022/12/10 09:17:56;;;;;;;83.60;26.90;;;;;;;-1.01;100.00;98607.15;102272;1346;22169;-29
2022/12/10 09:20:22;;;;;;;90.20;31.50;;;;;;;-1.01;100.00;98604.69;102146;1372;22772;-33
2022/12/10 09:22:48;;;;;;;112.60;40.50;;;;;;;-1.06;100.00;98602.59;102223;1372;22294;-33
2022/12/10 09:25:15;;;;;;;115.50;32.60;;;;;;;-1.07;100.00;98606.17;102013;1353;22696;-29
2022/12/10 09:27:41;;;;;;;71.80;19.10;;;;;;;-0.98;100.00;98604.03;102188;1352;22424;-33
2022/12/10 09:30:07;;;;;;;93.00;27.80;;;;;;;-1.09;100.00;98595.94;102132;1356;22341;-36
2022/12/10 09:32:32;;;;;;;85.10;25.40;;;;;;;-1.06;100.00;98592.89;102128;1365;23917;-31
2022/12/10 09:34:58;;;;;;;100.40;30.30;;;;;;;-1.03;100.00;98603.33;102167;1353;22165;-36
2022/12/10 09:37:24;;;;;;;88.90;23.30;;;;;;;-1.00;100.00;98607.37;102074;1356;22626;-36
2022/12/10 09:39:49;;;;;;;88.60;26.40;;;;;;;-0.92;100.00;98601.77;102059;1372;24380;-36
2022/12/10 09:42:22;;;;;;;110.40;32.50;;;;;;;-0.89;100.00;98598.90;101149;1363;24499;-30
2022/12/10 09:44:56;;;;;;;92.00;26.00;;;;;;;-0.87;100.00;98589.16;101534;1352;22613;-31
2022/12/10 09:47:23;;;;;;;;;;;;;;;-0.91;100.00;98583.04;102182;1371;22684;-36
2022/12/10 09:49:56;;;;;;;77.70;21.70;;;;;;;-0.93;100.00;98574.64;102132;1345;22419;-29
2022/12/10 09:52:23;;;;;;;41.50;15.50;;;;;;;-0.92;100.00;98573.17;102063;1370;22581;-33
2022/12/10 09:54:54;;;;;;;81.00;23.80;;;;;;;-0.90;100.00;98566.28;102100;1356;22692;-29
2022/12/10 09:57:25;;;;;;;85.60;24.70;;;;;;;-0.91;100.00;98563.36;102154;1362;22189;-30
2022/12/10 09:59:51;;;;;;;93.80;28.50;;;;;;;-0.91;100.00;98568.45;102237;1362;22637;-33
2022/12/10 10:02:20;;;;;;;105.80;30.40;;;;;;;-0.95;100.00;98578.17;102057;1372;22325;-29
2022/12/10 10:04:47;;;;;;;80.70;27.00;;;;;;;-0.88;100.00;98574.89;102154;1355;22324;-28
2022/12/10 10:07:20;;;;;;;93.40;30.40;;;;;;;-0.91;100.00;98577.45;102181;1356;22159;-33
2022/12/10 10:09:46;;;;;;;110.20;31.70;;;;;;;-0.89;100.00;98582.48;102121;1356;22793;-33
2022/12/10 10:12:13;;;;;;;85.80;24.70;;;;;;;-0.85;100.00;98581.83;102133;1353;22596;-33
2022/12/10 10:14:39;;;;;;;85.80;22.00;;;;;;;-0.85;100.00;98585.10;102099;1357;22486;-29
2022/12/10 10:17:09;;;;;;;93.40;25.80;;;;;;;-0.81;100.00;98593.73;102111;1369;22328;-29
2022/12/10 10:19:37;;;;;;;93.50;30.60;;;;;;;-0.81;100.00;98583.30;102191;1372;22185;-33
2022/12/10 10:22:03;;;;;;;116.20;34.50;;;;;;;-0.75;100.00;98568.70;102163;1372;22600;-29
2022/12/10 10:24:34;;;;;;;145.00;48.20;;;;;;;-0.73;100.00;98563.09;102151;1355;22699;-29
2022/12/10 10:27:10;;;;;;;118.90;42.00;;;;;;;-0.73;100.00;98563.45;101604;1355;23153;-34
2022/12/10 10:29:36;;;;;;;138.70;41.90;;;;;;;-0.72;100.00;98561.95;102203;1353;22705;-31
2022/12/10 10:32:10;;;;;;;91.10;31.90;;;;;;;-0.68;100.00;98556.75;101847;1371;22605;-30
2022/12/10 10:34:35;;;;;;;;;;;;;;;-0.81;100.00;98543.96;102164;1354;22611;-34
2022/12/10 10:37:00;;;;;;;73.90;26.00;;;;;;;-0.83;100.00;98540.70;102130;1356;22201;-34
2022/12/10 10:39:28;;;;;;;92.00;28.60;;;;;;;-0.82;100.00;98540.54;101996;1356;22189;-35
2022/12/10 10:41:54;;;;;;;95.00;31.50;;;;;;;-0.83;100.00;98543.98;102221;1355;22598;-31
2022/12/10 10:44:21;;;;;;;106.20;32.30;;;;;;;-0.82;100.00;98550.54;101937;1353;22280;-35
2022/12/10 10:46:49;;;;;;;90.90;31.00;;;;;;;-0.75;100.00;98548.49;102078;1356;22323;-34
2022/12/10 10:49:32;;;;;;;98.90;31.50;;;;;;;-0.74;100.00;98545.44;101953;1356;25331;-34
2022/12/10 10:52:00;;;;;;;72.90;24.80;;;;;;;-0.71;100.00;98536.64;102126;1353;22441;-34
2022/12/10 10:54:32;;;;;;;85.70;32.70;;;;;;;-0.71;100.00;98531.02;102014;1366;22338;-31
2022/12/10 10:57:00;;;;;;;74.30;25.90;;;;;;;-0.66;100.00;98528.43;102150;1357;22503;-34
2022/12/10 10:59:30;;;;;;;87.30;28.60;;;;;;;-0.73;100.00;98527.77;102160;1372;22642;-35
2022/12/10 11:02:01;;;;;;;92.20;35.20;;;;;;;-0.69;100.00;98528.42;102105;1369;22740;-34
2022/12/10 11:04:32;;;;;;;76.40;24.30;;;;;;;-0.69;100.00;98528.73;101993;1356;22712;-30
2022/12/10 11:07:00;;;;;;;99.80;33.80;;;;;;;-0.66;100.00;98530.73;102078;1372;22244;-30
2022/12/10 11:09:29;;;;;;;90.00;33.90;;;;;;;-0.65;100.00;98529.45;102043;1353;22619;-34
2022/12/10 11:12:00;;;;;;;106.30;38.30;;;;;;;-0.67;100.00;98533.30;102139;1356;22459;-30